Time;durP1;ratioP1;P1;durP2;ratioP2;P2;SDS_P1;SDS_P2;PMS_P1;PMS_P2;Temp;Humidity;BMP_temperature;BMP_pressure;BME280_temperature;BME280_humidity;BME280_pressure;Samples;Min_cycle;Max_cycle;Signal;HPM_P1;HPM_P2
2024/02/11 00:02:06;;;;;;;27.55;16.80;;;384.60;1766.40;;;;;;4838518;29;20033;-74
2024/02/11 00:04:32;;;;;;;118.88;64.47;;;384.60;1740.80;;;;;;4838383;29;20118;-75
2024/02/11 00:06:58;;;;;;;41.08;20.50;;;384.60;1740.80;;;;;;4837436;29;20070;-74
2024/02/11 00:09:24;;;;;;;18.25;10.88;;;384.70;1740.80;;;;;;4838268;29;20080;-74
2024/02/11 00:11:51;;;;;;;57.15;31.98;;;384.60;1740.80;;;;;;4837958;29;20385;-74
2024/02/11 00:14:19;;;;;;;28.05;15.23;;;384.60;1740.80;;;;;;4838232;29;20034;-74
2024/02/11 00:16:45;;;;;;;27.15;17.20;;;384.60;1766.40;;;;;;4838699;29;20022;-74
2024/02/11 00:19:13;;;;;;;33.50;20.02;;;384.70;1766.40;;;;;;4838174;29;20014;-74
2024/02/11 00:21:39;;;;;;;26.25;16.65;;;384.70;1766.40;;;;;;4838225;29;20061;-75
2024/02/11 00:24:06;;;;;;;36.20;19.55;;;384.70;1766.40;;;;;;4838319;29;20536;-74
2024/02/11 00:26:33;;;;;;;44.63;25.98;;;384.70;1766.40;;;;;;4838310;29;20026;-74
2024/02/11 00:28:59;;;;;;;19.75;11.88;;;384.60;1766.40;;;;;;4837895;29;20030;-74
2024/02/11 00:31:25;;;;;;;13.93;8.20;;;384.60;1792.00;;;;;;4837182;29;20366;-73
2024/02/11 00:33:51;;;;;;;17.25;8.50;;;384.60;1792.00;;;;;;4835021;29;20414;-74
2024/02/11 00:36:17;;;;;;;16.42;8.70;;;384.40;1792.00;;;;;;4838298;29;20026;-73
2024/02/11 00:38:43;;;;;;;24.00;11.77;;;384.40;1792.00;;;;;;4838075;29;20052;-75
2024/02/11 00:41:09;;;;;;;21.92;12.07;;;384.40;1792.00;;;;;;4833056;29;20087;-75
2024/02/11 00:43:37;;;;;;;128.60;70.82;;;384.40;1817.60;;;;;;4832732;29;20038;-74
2024/02/11 00:46:03;;;;;;;26.23;17.33;;;384.40;1817.60;;;;;;4837795;29;20163;-75
2024/02/11 00:48:29;;;;;;;48.25;25.65;;;384.40;1817.60;;;;;;4826980;29;20042;-78
2024/02/11 00:50:56;;;;;;;39.58;24.88;;;384.30;1843.20;;;;;;4836792;29;20040;-74
2024/02/11 00:53:24;;;;;;;23.73;12.25;;;384.20;1843.20;;;;;;4834681;29;20042;-75
2024/02/11 00:55:50;;;;;;;26.92;12.27;;;384.20;1843.20;;;;;;4837862;29;20038;-75
2024/02/11 00:58:16;;;;;;;23.10;13.02;;;384.10;1843.20;;;;;;4837793;29;20032;-75
2024/02/11 01:00:44;;;;;;;16.75;9.85;;;384.20;1843.20;;;;;;4833383;29;20569;-75
2024/02/11 01:03:13;;;;;;;51.63;31.83;;;384.20;1843.20;;;;;;4836790;29;20026;-77
2024/02/11 01:05:42;;;;;;;19.27;8.45;;;384.30;1843.20;;;;;;4837875;29;20022;-74
2024/02/11 01:08:08;;;;;;;8.23;5.10;;;384.40;1817.60;;;;;;4835908;29;20053;-74
2024/02/11 01:10:34;;;;;;;12.40;6.50;;;384.60;1817.60;;;;;;4837871;29;20068;-75
2024/02/11 01:13:00;;;;;;;16.23;8.50;;;384.60;1817.60;;;;;;4826040;29;20070;-75
2024/02/11 01:15:26;;;;;;;16.02;8.65;;;384.60;1817.60;;;;;;4844135;29;20052;-76
2024/02/11 01:17:53;;;;;;;15.00;8.32;;;384.70;1817.60;;;;;;4842005;29;20033;-75
2024/02/11 01:20:18;;;;;;;13.73;8.48;;;384.70;1817.60;;;;;;4837868;29;20029;-75
2024/02/11 01:22:46;;;;;;;15.15;8.38;;;384.70;1817.60;;;;;;4837629;29;20042;-78
2024/02/11 01:25:19;;;;;;;11.32;6.95;;;384.70;1817.60;;;;;;4838037;29;20042;-78
2024/02/11 01:27:45;;;;;;;15.60;9.48;;;384.80;1817.60;;;;;;4837957;29;20064;-79
2024/02/11 01:30:12;;;;;;;18.80;8.98;;;384.80;1817.60;;;;;;4837738;29;20030;-78
2024/02/11 01:32:37;;;;;;;11.48;8.02;;;384.80;1817.60;;;;;;4838009;29;20083;-79
2024/02/11 01:35:04;;;;;;;11.38;7.03;;;384.70;1817.60;;;;;;4837969;29;20030;-80
2024/02/11 01:37:29;;;;;;;19.33;7.05;;;384.70;1817.60;;;;;;4837303;29;20025;-76
2024/02/11 01:39:55;;;;;;;17.92;10.88;;;384.80;1817.60;;;;;;4831863;29;20038;-76
2024/02/11 01:42:21;;;;;;;14.93;6.70;;;384.60;1817.60;;;;;;4825536;29;20485;-75
2024/02/11 01:44:47;;;;;;;29.15;18.80;;;384.60;1817.60;;;;;;4836806;29;20033;-75
2024/02/11 01:47:12;;;;;;;11.60;6.60;;;384.60;1817.60;;;;;;4824428;29;20362;-74
2024/02/11 01:49:38;;;;;;;11.95;7.88;;;384.60;1843.20;;;;;;4825022;29;20083;-74
2024/02/11 01:52:06;;;;;;;15.30;8.65;;;384.70;1817.60;;;;;;4829478;29;20030;-75
2024/02/11 01:54:32;;;;;;;13.52;7.20;;;384.70;1843.20;;;;;;4823994;29;20049;-75
2024/02/11 01:56:58;;;;;;;11.23;6.50;;;384.70;1843.20;;;;;;4828912;29;20030;-75
2024/02/11 01:59:27;;;;;;;15.07;9.35;;;384.80;1843.20;;;;;;4824292;29;20466;-76
2024/02/11 02:01:54;;;;;;;16.80;9.23;;;384.70;1843.20;;;;;;4830069;29;20038;-73
2024/02/11 02:04:20;;;;;;;13.85;7.93;;;384.70;1843.20;;;;;;4826759;29;20030;-75
2024/02/11 02:06:48;;;;;;;11.75;6.35;;;384.80;1843.20;;;;;;4836246;29;20082;-79
2024/02/11 02:09:14;;;;;;;15.77;9.27;;;384.80;1843.20;;;;;;4830496;29;20038;-79
2024/02/11 02:11:40;;;;;;;13.80;7.93;;;384.90;1843.20;;;;;;4835707;29;20140;-78
2024/02/11 02:14:06;;;;;;;11.85;6.57;;;384.90;1843.20;;;;;;4835764;29;20036;-78
2024/02/11 02:16:32;;;;;;;19.08;11.20;;;384.90;1843.20;;;;;;4840572;29;20033;-77
2024/02/11 02:18:58;;;;;;;8.35;5.25;;;384.90;1843.20;;;;;;4828756;29;20034;-78
2024/02/11 02:21:27;;;;;;;7.22;5.38;;;384.90;1843.20;;;;;;4840702;29;20018;-78
2024/02/11 02:23:53;;;;;;;12.45;5.82;;;384.90;1843.20;;;;;;4840473;29;20071;-78
2024/02/11 02:26:19;;;;;;;7.75;4.45;;;384.90;1843.20;;;;;;4840474;29;20420;-78
2024/02/11 02:28:45;;;;;;;13.13;7.03;;;384.90;1843.20;;;;;;4840431;29;20401;-78
2024/02/11 02:31:10;;;;;;;16.73;9.98;;;384.90;1843.20;;;;;;4840644;29;20018;-79
2024/02/11 02:33:37;;;;;;;19.70;11.85;;;384.90;1868.80;;;;;;4840585;29;20030;-77
2024/02/11 02:36:06;;;;;;;35.40;23.48;;;384.90;1868.80;;;;;;4840244;29;20024;-76
2024/02/11 02:38:32;;;;;;;13.20;7.78;;;384.90;1868.80;;;;;;4840023;29;20053;-80
2024/02/11 02:40:58;;;;;;;23.48;12.00;;;384.90;1868.80;;;;;;4840567;29;20036;-78
2024/02/11 02:43:25;;;;;;;16.35;11.38;;;384.90;1868.80;;;;;;4840237;29;20334;-78
2024/02/11 02:45:51;;;;;;;10.35;5.72;;;384.90;1868.80;;;;;;4823706;29;20438;-77
2024/02/11 02:48:17;;;;;;;14.23;8.60;;;409.60;1894.40;;;;;;4840556;29;20052;-78
2024/02/11 02:50:43;;;;;;;13.30;6.15;;;409.60;1894.40;;;;;;4840148;29;20018;-76
2024/02/11 02:53:10;;;;;;;4.95;2.42;;;409.80;1894.40;;;;;;4839632;29;20118;-78
2024/02/11 02:55:37;;;;;;;10.30;2.70;;;409.90;1894.40;;;;;;4839983;29;20512;-79
2024/02/11 02:58:08;;;;;;;10.50;6.55;;;410.00;1894.40;;;;;;4839887;29;20491;-76
2024/02/11 03:00:34;;;;;;;8.40;4.30;;;410.00;1868.80;;;;;;4840219;29;20064;-78
2024/02/11 03:03:06;;;;;;;4.50;2.40;;;410.10;1894.40;;;;;;4839642;29;20054;-78
2024/02/11 03:05:34;;;;;;;3.13;1.50;;;410.20;1868.80;;;;;;4839761;29;20053;-80
2024/02/11 03:08:00;;;;;;;5.32;2.47;;;410.20;1868.80;;;;;;4840629;29;20086;-78
2024/02/11 03:10:26;;;;;;;2.95;1.80;;;410.20;1868.80;;;;;;4857910;29;20025;-79
2024/02/11 03:12:51;;;;;;;14.50;8.50;;;410.30;1868.80;;;;;;4844311;29;20446;-79
2024/02/11 03:15:17;;;;;;;4.05;2.50;;;410.30;1868.80;;;;;;4840034;29;20380;-78
2024/02/11 03:17:44;;;;;;;7.70;3.30;;;410.30;1868.80;;;;;;4839515;29;20034;-78
2024/02/11 03:20:15;;;;;;;7.82;5.60;;;410.30;1868.80;;;;;;4839877;29;20040;-80
2024/02/11 03:22:42;;;;;;;10.48;6.97;;;410.40;1868.80;;;;;;4839198;29;20392;-77
2024/02/11 03:25:09;;;;;;;7.30;3.97;;;410.40;1868.80;;;;;;4839941;29;20037;-78
2024/02/11 03:27:37;;;;;;;6.55;4.28;;;410.40;1868.80;;;;;;4839639;29;20515;-77
2024/02/11 03:30:05;;;;;;;11.38;4.22;;;410.50;1868.80;;;;;;4839463;29;20030;-77
2024/02/11 03:32:31;;;;;;;5.20;3.00;;;410.50;1868.80;;;;;;4823192;29;20385;-77
2024/02/11 03:34:57;;;;;;;8.25;4.22;;;410.50;1868.80;;;;;;4839680;29;20388;-77
2024/02/11 03:37:23;;;;;;;4.53;2.50;;;410.50;1868.80;;;;;;4838883;29;20026;-79
2024/02/11 03:39:49;;;;;;;6.18;2.58;;;410.50;1868.80;;;;;;4839757;29;20975;-77
2024/02/11 03:42:15;;;;;;;6.63;3.42;;;435.20;1868.80;;;;;;4839813;29;20033;-79
2024/02/11 03:44:41;;;;;;;6.00;3.40;;;410.50;1868.80;;;;;;4839127;29;20026;-77
2024/02/11 03:47:07;;;;;;;9.77;5.25;;;410.50;1868.80;;;;;;4839398;29;20711;-79
2024/02/11 03:49:32;;;;;;;9.02;4.53;;;410.40;1868.80;;;;;;4839062;29;20038;-79
2024/02/11 03:51:58;;;;;;;7.10;3.58;;;410.30;1868.80;;;;;;4838969;29;20026;-75
2024/02/11 03:54:24;;;;;;;14.70;9.60;;;410.30;1868.80;;;;;;4838626;29;20064;-75
2024/02/11 03:56:51;;;;;;;10.93;4.07;;;410.20;1868.80;;;;;;4838697;29;20387;-76
2024/02/11 03:59:17;;;;;;;9.93;5.25;;;410.10;1868.80;;;;;;4839068;29;20026;-76
2024/02/11 04:01:44;;;;;;;12.15;7.20;;;410.10;1868.80;;;;;;4838714;29;20365;-77
2024/02/11 04:04:10;;;;;;;12.43;6.75;;;410.00;1868.80;;;;;;4838875;29;20037;-75
2024/02/11 04:06:36;;;;;;;8.57;4.25;;;410.00;1868.80;;;;;;4838891;29;20022;-75
2024/02/11 04:09:03;;;;;;;11.15;5.13;;;410.00;1868.80;;;;;;4838449;29;20442;-75
2024/02/11 04:11:32;;;;;;;8.23;4.20;;;410.00;1894.40;;;;;;4838572;29;20017;-75
2024/02/11 04:13:58;;;;;;;9.30;5.15;;;410.10;1894.40;;;;;;4838724;29;20030;-75
2024/02/11 04:16:25;;;;;;;16.45;8.48;;;409.90;1894.40;;;;;;4838679;29;20085;-74
2024/02/11 04:18:52;;;;;;;5.80;4.70;;;409.90;1894.40;;;;;;4838654;29;20073;-75
2024/02/11 04:21:21;;;;;;;16.10;9.25;;;410.20;1894.40;;;;;;4838726;29;20026;-75
2024/02/11 04:23:48;;;;;;;8.23;3.97;;;410.20;1920.00;;;;;;4837826;29;20502;-75
2024/02/11 04:26:17;;;;;;;13.93;7.93;;;410.20;1920.00;;;;;;4838659;29;20022;-75
2024/02/11 04:28:45;;;;;;;3.20;1.58;;;410.30;1920.00;;;;;;4838338;29;20389;-74
2024/02/11 04:31:11;;;;;;;6.15;3.50;;;410.40;1920.00;;;;;;4838388;29;20028;-74
2024/02/11 04:33:41;;;;;;;8.52;3.95;;;410.30;1920.00;;;;;;4838516;29;20038;-75
2024/02/11 04:36:14;;;;;;;7.38;2.85;;;410.40;1920.00;;;;;;4838300;29;20022;-75
2024/02/11 04:38:39;;;;;;;;;;;410.40;1920.00;;;;;;4838684;29;20112;-75
2024/02/11 04:41:05;;;;;;;10.52;5.70;;;410.50;1920.00;;;;;;4838630;29;19991;-75
2024/02/11 04:43:34;;;;;;;8.18;4.78;;;410.50;1920.00;;;;;;4837845;29;20022;-75
2024/02/11 04:46:03;;;;;;;4.68;2.10;;;435.20;1894.40;;;;;;4838388;29;20030;-75
2024/02/11 04:48:31;;;;;;;42.25;20.58;;;435.20;1894.40;;;;;;4838124;29;20089;-75
2024/02/11 04:51:00;;;;;;;4.68;2.90;;;435.20;1894.40;;;;;;4838192;29;20504;-75
2024/02/11 04:53:29;;;;;;;3.78;2.10;;;435.20;1920.00;;;;;;4837830;29;20054;-75
2024/02/11 04:55:57;;;;;;;10.15;5.32;;;435.20;1894.40;;;;;;4838403;29;20516;-78
2024/02/11 04:58:26;;;;;;;10.00;4.80;;;435.20;1920.00;;;;;;4838015;29;20109;-76
2024/02/11 05:00:53;;;;;;;5.47;3.30;;;410.50;1920.00;;;;;;4838371;29;20030;-75
2024/02/11 05:03:19;;;;;;;5.72;3.13;;;410.50;1920.00;;;;;;4838953;29;20055;-75
2024/02/11 05:05:47;;;;;;;70.70;30.83;;;410.50;1920.00;;;;;;4838226;29;20078;-75
2024/02/11 05:08:16;;;;;;;14.13;7.22;;;410.30;1920.00;;;;;;4837954;29;20098;-76
2024/02/11 05:10:44;;;;;;;13.05;6.85;;;410.20;1945.60;;;;;;4838246;29;20058;-78
2024/02/11 05:13:12;;;;;;;26.10;15.18;;;410.10;1971.20;;;;;;4837776;29;20454;-79
2024/02/11 05:15:40;;;;;;;9.02;4.47;;;410.00;1971.20;;;;;;4838298;29;20473;-77
2024/02/11 05:18:09;;;;;;;6.22;2.60;;;410.00;1971.20;;;;;;4837922;29;20113;-79
2024/02/11 05:20:36;;;;;;;14.05;6.90;;;409.80;1996.80;;;;;;4838390;29;20037;-77
2024/02/11 05:23:05;;;;;;;6.90;2.92;;;409.80;1996.80;;;;;;4837618;29;20022;-78
2024/02/11 05:25:32;;;;;;;5.93;2.88;;;409.70;1996.80;;;;;;4837910;29;20030;-78
2024/02/11 05:28:09;;;;;;;6.82;3.67;;;384.90;1996.80;;;;;;4837812;29;20105;-77
2024/02/11 05:30:42;;;;;;;15.05;9.35;;;384.90;1996.80;;;;;;4838112;29;20489;-78
2024/02/11 05:33:09;;;;;;;31.55;14.98;;;409.60;2022.40;;;;;;4838091;29;20026;-78
2024/02/11 05:35:37;;;;;;;38.40;17.00;;;409.60;2022.40;;;;;;4841276;29;20033;-78
2024/02/11 05:38:03;;;;;;;19.35;9.48;;;409.70;1996.80;;;;;;4841296;29;20030;-77
2024/02/11 05:40:32;;;;;;;7.28;3.13;;;409.70;1996.80;;;;;;4841339;29;20050;-77
2024/02/11 05:43:01;;;;;;;6.15;3.22;;;409.80;1996.80;;;;;;4841405;29;20045;-76
2024/02/11 05:45:28;;;;;;;20.25;9.43;;;409.80;1996.80;;;;;;4841255;29;20026;-76
2024/02/11 05:47:54;;;;;;;15.68;7.72;;;409.90;1996.80;;;;;;4841329;29;20026;-75
2024/02/11 05:50:21;;;;;;;11.23;6.40;;;410.00;1996.80;;;;;;4841518;29;20058;-78
2024/02/11 05:52:48;;;;;;;6.70;3.42;;;410.00;1996.80;;;;;;4841448;29;20041;-74
2024/02/11 05:55:18;;;;;;;7.65;3.60;;;410.00;1996.80;;;;;;4840878;29;20050;-78
2024/02/11 05:57:46;;;;;;;7.40;3.10;;;410.00;1996.80;;;;;;4841396;29;20162;-78
2024/02/11 06:00:13;;;;;;;5.22;2.70;;;410.00;1996.80;;;;;;4840834;29;20117;-79
2024/02/11 06:02:45;;;;;;;4.32;1.30;;;410.00;1996.80;;;;;;4841334;29;20026;-78
2024/02/11 06:05:12;;;;;;;29.08;13.32;;;410.00;1996.80;;;;;;4841276;29;20025;-79
2024/02/11 06:07:47;;;;;;;1.90;1.40;;;410.00;2022.40;;;;;;4840874;29;20071;-75
2024/02/11 06:10:13;;;;;;;10.73;4.80;;;410.10;1996.80;;;;;;4829346;29;20119;-78
2024/02/11 06:12:43;;;;;;;5.38;2.15;;;410.10;1996.80;;;;;;4840799;29;20026;-77
2024/02/11 06:15:10;;;;;;;5.63;2.58;;;410.30;1996.80;;;;;;4840752;29;20026;-77
2024/02/11 06:17:37;;;;;;;3.20;1.50;;;410.20;1996.80;;;;;;4839881;29;20033;-79
2024/02/11 06:20:04;;;;;;;3.92;1.90;;;410.20;1996.80;;;;;;4840730;29;20525;-78
2024/02/11 06:22:30;;;;;;;3.90;2.13;;;410.10;2022.40;;;;;;4840461;29;20034;-79
2024/02/11 06:24:58;;;;;;;17.30;7.38;;;410.00;2022.40;;;;;;4840620;29;20041;-77
2024/02/11 06:27:24;;;;;;;11.77;6.18;;;410.00;2022.40;;;;;;4840511;29;20041;-76
2024/02/11 06:29:50;;;;;;;15.50;8.02;;;410.00;2022.40;;;;;;4840251;29;20044;-76
2024/02/11 06:32:16;;;;;;;15.77;7.28;;;410.00;2022.40;;;;;;4840479;29;20101;-76
2024/02/11 06:34:42;;;;;;;22.13;12.82;;;410.00;2022.40;;;;;;4836281;29;20034;-78
2024/02/11 06:37:09;;;;;;;23.60;11.20;;;410.00;2022.40;;;;;;4832137;29;20029;-77
2024/02/11 06:39:38;;;;;;;7.40;4.03;;;410.40;2022.40;;;;;;4835713;29;20033;-79
2024/02/11 06:42:09;;;;;;;12.80;7.32;;;410.20;1996.80;;;;;;4835937;29;20488;-80
2024/02/11 06:44:38;;;;;;;37.08;19.55;;;410.20;2022.40;;;;;;4840391;29;20037;-79
2024/02/11 06:47:11;;;;;;;20.10;9.65;;;410.30;1996.80;;;;;;4839944;29;20507;-78
2024/02/11 06:49:38;;;;;;;20.45;10.05;;;410.30;1996.80;;;;;;4840056;29;20042;-77
2024/02/11 06:52:10;;;;;;;33.88;22.58;;;410.40;1996.80;;;;;;4840423;29;20038;-79
2024/02/11 06:54:40;;;;;;;9.75;4.68;;;410.50;1996.80;;;;;;4840022;29;20057;-79
2024/02/11 06:57:12;;;;;;;12.43;8.52;;;435.20;1971.20;;;;;;4840330;29;20050;-79
2024/02/11 06:59:38;;;;;;;13.65;6.57;;;435.30;1971.20;;;;;;4839853;29;20109;-78
2024/02/11 07:02:05;;;;;;;17.58;12.50;;;435.30;1971.20;;;;;;4840488;29;20026;-78
2024/02/11 07:04:34;;;;;;;11.95;6.80;;;435.40;1971.20;;;;;;4852771;29;20023;-78
2024/02/11 07:07:03;;;;;;;13.30;4.47;;;435.60;1920.00;;;;;;4840235;29;20052;-80
2024/02/11 07:09:29;;;;;;;54.42;35.70;;;435.90;1894.40;;;;;;4839458;29;20033;-79
2024/02/11 07:11:57;;;;;;;7.78;5.00;;;436.10;1894.40;;;;;;4840084;29;20029;-79
2024/02/11 07:14:23;;;;;;;12.82;7.60;;;460.80;1894.40;;;;;;4839725;29;20533;-79
2024/02/11 07:16:49;;;;;;;25.60;18.25;;;460.80;1894.40;;;;;;4827885;29;20445;-79
2024/02/11 07:19:15;;;;;;;11.55;6.30;;;460.90;1894.40;;;;;;4849476;29;20125;-78
2024/02/11 07:21:45;;;;;;;24.08;21.20;;;460.90;1894.40;;;;;;4851632;29;20030;-77
2024/02/11 07:24:11;;;;;;;11.77;6.60;;;460.80;1894.40;;;;;;4840314;29;20042;-79
2024/02/11 07:26:38;;;;;;;8.43;4.15;;;436.00;1894.40;;;;;;4846673;29;20065;-78
2024/02/11 07:29:04;;;;;;;16.25;9.02;;;436.10;1868.80;;;;;;4847230;29;20052;-79
2024/02/11 07:31:32;;;;;;;10.02;6.55;;;436.10;1868.80;;;;;;4839079;29;20033;-80
2024/02/11 07:33:57;;;;;;;7.82;3.58;;;436.10;1868.80;;;;;;4839646;29;20033;-77
2024/02/11 07:36:23;;;;;;;9.32;3.05;;;436.10;1868.80;;;;;;4838044;29;20393;-77
2024/02/11 07:38:51;;;;;;;7.20;3.50;;;460.80;1894.40;;;;;;4829941;29;20378;-75
2024/02/11 07:41:18;;;;;;;11.82;6.30;;;460.80;1894.40;;;;;;4836664;29;20113;-73
2024/02/11 07:43:44;;;;;;;15.05;8.23;;;460.90;1868.80;;;;;;4838525;29;20052;-74
2024/02/11 07:46:13;;;;;;;14.57;7.78;;;436.10;1843.20;;;;;;4838934;29;20030;-74
2024/02/11 07:48:40;;;;;;;10.32;6.82;;;436.10;1843.20;;;;;;4838888;29;20527;-74
2024/02/11 07:51:06;;;;;;;19.08;13.50;;;460.80;1868.80;;;;;;4834118;29;20033;-74
2024/02/11 07:53:32;;;;;;;9.90;6.25;;;461.00;1868.80;;;;;;4838138;29;20058;-81
2024/02/11 07:55:58;;;;;;;11.75;8.70;;;461.20;1868.80;;;;;;4838811;29;20058;-78
2024/02/11 07:58:24;;;;;;;3.33;2.13;;;461.40;1843.20;;;;;;4837522;29;20393;-82
2024/02/11 08:00:50;;;;;;;23.42;15.20;;;461.40;1843.20;;;;;;4829994;29;20458;-81
2024/02/11 08:03:15;;;;;;;10.75;7.32;;;461.30;1843.20;;;;;;4834420;29;20041;-79
2024/02/11 08:05:41;;;;;;;68.30;42.63;;;461.40;1843.20;;;;;;4830094;29;20038;-80
2024/02/11 08:08:07;;;;;;;44.33;21.98;;;486.50;1792.00;;;;;;4829481;29;20097;-79
2024/02/11 08:10:33;;;;;;;26.95;16.35;;;486.60;1792.00;;;;;;4835507;29;20058;-81
2024/02/11 08:12:59;;;;;;;55.15;34.38;;;486.60;1792.00;;;;;;4837999;29;20642;-75
2024/02/11 08:15:24;;;;;;;102.38;61.65;;;486.60;1792.00;;;;;;4838415;29;20389;-81
2024/02/11 08:17:50;;;;;;;51.92;30.73;;;487.20;1766.40;;;;;;4844331;29;20030;-81
2024/02/11 08:20:18;;;;;;;149.75;88.03;;;537.90;1664.00;;;;;;4838587;29;20521;-78
2024/02/11 08:22:45;;;;;;;99.22;64.13;;;538.00;1664.00;;;;;;4838037;29;20065;-78
2024/02/11 08:25:12;;;;;;;28.83;16.35;;;;;;;;;;4837680;29;20045;-78
2024/02/11 08:27:38;;;;;;;22.30;15.52;;;589.00;1587.20;;;;;;4837937;29;20396;-80
2024/02/11 08:30:09;;;;;;;34.03;21.55;;;588.80;1587.20;;;;;;4847155;29;20033;-79
2024/02/11 08:32:38;;;;;;;17.45;11.82;;;588.80;1587.20;;;;;;4835878;29;20110;-76
2024/02/11 08:35:05;;;;;;;15.55;12.52;;;589.30;1587.20;;;;;;4838032;29;20490;-77
2024/02/11 08:37:32;;;;;;;29.40;25.08;;;564.10;1587.20;;;;;;4837978;29;20069;-79
2024/02/11 08:39:58;;;;;;;26.85;16.23;;;563.50;1612.80;;;;;;4838099;29;20090;-80
2024/02/11 08:42:25;;;;;;;5.63;3.45;;;563.70;1638.40;;;;;;4838265;29;20025;-78
2024/02/11 08:44:51;;;;;;;11.88;9.00;;;588.80;1561.60;;;;;;4837809;29;20022;-77
2024/02/11 08:47:17;;;;;;;22.77;14.68;;;563.80;1587.20;;;;;;4838176;29;20033;-80
2024/02/11 08:49:46;;;;;;;14.48;6.30;;;563.60;1612.80;;;;;;4837402;29;20374;-76
2024/02/11 08:52:12;;;;;;;15.05;6.50;;;563.40;1638.40;;;;;;4837938;29;20030;-81
2024/02/11 08:54:39;;;;;;;11.77;6.63;;;538.50;1664.00;;;;;;4837680;29;20053;-74
2024/02/11 08:57:05;;;;;;;21.42;14.52;;;538.10;1664.00;;;;;;4837686;29;20094;-75
2024/02/11 08:59:31;;;;;;;14.30;7.20;;;537.90;1638.40;;;;;;4837444;29;20511;-77
2024/02/11 09:01:57;;;;;;;13.15;6.65;;;512.90;1638.40;;;;;;4838084;29;20057;-75
2024/02/11 09:04:23;;;;;;;20.02;14.18;;;512.50;1689.60;;;;;;4838219;29;20495;-75
2024/02/11 09:06:55;;;;;;;14.95;9.15;;;512.30;1689.60;;;;;;4829746;29;20033;-75
2024/02/11 09:09:27;;;;;;;31.38;20.00;;;512.00;1715.20;;;;;;4837116;29;20046;-78
2024/02/11 09:11:57;;;;;;;47.08;37.15;;;487.30;1766.40;;;;;;4833782;29;20497;-81
2024/02/11 09:14:25;;;;;;;21.77;12.48;;;487.30;1766.40;;;;;;4835038;29;20045;-75
2024/02/11 09:16:52;;;;;;;11.20;6.40;;;512.00;1740.80;;;;;;4836615;29;20125;-78
2024/02/11 09:19:18;;;;;;;36.67;27.85;;;487.10;1740.80;;;;;;4841887;29;20113;-77
2024/02/11 09:21:44;;;;;;;31.83;28.35;;;487.10;1766.40;;;;;;4836146;29;20503;-79
2024/02/11 09:24:10;;;;;;;13.73;11.23;;;487.00;1740.80;;;;;;4841750;29;20034;-79
2024/02/11 09:26:37;;;;;;;16.17;10.73;;;487.00;1740.80;;;;;;4842000;29;20385;-79
2024/02/11 09:29:07;;;;;;;12.15;5.75;;;;;;;;;;4841433;29;20041;-79
2024/02/11 09:31:34;;;;;;;12.50;6.03;;;;;;;;;;4841646;29;20049;-80
2024/02/11 09:34:01;;;;;;;11.77;7.20;;;;;;;;;;4841466;29;20034;-79
2024/02/11 09:36:27;;;;;;;16.67;11.98;;;;;;;;;;4841875;29;20022;-79
2024/02/11 09:38:53;;;;;;;12.77;7.53;;;;;;;;;;4841355;29;20057;-80
2024/02/11 09:41:19;;;;;;;9.68;6.65;;;;;;;;;;4841284;29;20055;-77
2024/02/11 09:43:47;;;;;;;10.73;6.47;;;;;;;;;;4841191;29;20388;-79
2024/02/11 09:46:17;;;;;;;20.92;12.85;;;;;;;;;;4841622;29;20028;-76
2024/02/11 09:48:44;;;;;;;25.13;14.80;;;;;;;;;;4841405;29;20480;-79
2024/02/11 09:51:12;;;;;;;21.83;16.73;;;;;;;;;;4841441;29;20117;-76
2024/02/11 09:53:39;;;;;;;13.55;10.73;;;;;;;;;;4841025;29;20061;-76
2024/02/11 09:56:06;;;;;;;9.85;5.47;;;;;;;;;;4841980;29;20026;-76
2024/02/11 09:58:32;;;;;;;18.08;12.52;;;;;;;;;;4841299;29;20014;-76
2024/02/11 10:00:59;;;;;;;11.65;8.45;;;;;;;;;;4841310;29;20392;-76
2024/02/11 10:03:27;;;;;;;18.60;16.23;;;;;;;;;;4841095;29;20053;-76
2024/02/11 10:05:55;;;;;;;5.82;3.17;;;;;;;;;;4851404;29;20025;-76
2024/02/11 10:08:23;;;;;;;5.93;3.85;;;;;;;;;;4842631;29;20120;-76
2024/02/11 10:10:49;;;;;;;5.22;2.38;;;;;;;;;;4831526;29;20027;-77
2024/02/11 10:13:25;;;;;;;10.52;5.82;;;;;;;;;;4834473;29;20109;-76
2024/02/11 10:15:52;;;;;;;11.52;7.40;;;;;;;;;;4829691;29;20038;-76
2024/02/11 10:18:19;;;;;;;6.97;4.50;;;;;;;;;;4832334;29;20018;-76
2024/02/11 10:20:48;;;;;;;10.90;5.70;;;;;;;;;;4828727;29;20030;-76
2024/02/11 10:23:15;;;;;;;28.42;15.88;;;;;;;;;;4830398;29;20038;-78
2024/02/11 10:25:47;;;;;;;15.43;6.55;;;538.10;1612.80;;;;;;4828462;29;20101;-76
2024/02/11 10:28:14;;;;;;;5.03;3.03;;;538.40;1612.80;;;;;;4831549;29;20034;-75
2024/02/11 10:30:39;;;;;;;68.80;33.13;;;563.40;1689.60;;;;;;4828298;29;20030;-77
2024/02/11 10:33:06;;;;;;;57.47;34.50;;;563.90;1587.20;;;;;;4830038;29;20162;-76
2024/02/11 10:35:33;;;;;;;20.15;10.82;;;563.80;1587.20;;;;;;4828957;29;20034;-75
2024/02/11 10:38:08;;;;;;;70.97;34.13;;;564.10;1587.20;;;;;;4828235;29;20026;-76
2024/02/11 10:40:38;;;;;;;47.05;21.48;;;563.70;1587.20;;;;;;4824736;29;20038;-75
2024/02/11 10:43:09;;;;;;;56.85;28.38;;;563.70;1612.80;;;;;;4827494;29;20065;-76
2024/02/11 10:45:38;;;;;;;32.15;14.70;;;563.70;1612.80;;;;;;4831037;29;20041;-77
2024/02/11 10:48:04;;;;;;;28.50;13.13;;;563.80;1612.80;;;;;;4830450;29;20036;-77
2024/02/11 10:50:31;;;;;;;114.40;45.55;;;563.80;1612.80;;;;;;4828270;29;20026;-76
2024/02/11 10:53:03;;;;;;;11.93;5.95;;;563.60;1612.80;;;;;;4845418;29;20042;-76
2024/02/11 10:55:33;;;;;;;81.05;37.83;;;563.80;1612.80;;;;;;4834443;29;20382;-78
2024/02/11 10:58:01;;;;;;;14.27;6.90;;;563.70;1587.20;;;;;;4827804;29;20458;-78
2024/02/11 11:00:29;;;;;;;51.35;24.95;;;563.60;1612.80;;;;;;4831494;29;20038;-77
2024/02/11 11:03:05;;;;;;;26.65;13.45;;;563.30;1612.80;;;;;;4832043;29;20611;-76
2024/02/11 11:05:44;;;;;;;266.30;125.32;;;563.20;1638.40;;;;;;4827679;29;20031;-75
2024/02/11 11:08:12;;;;;;;60.38;28.38;;;563.50;1612.80;;;;;;4831560;29;20030;-76
2024/02/11 11:10:38;;;;;;;24.42;10.45;;;563.30;1612.80;;;;;;4829547;29;20030;-76
2024/02/11 11:13:04;;;;;;;136.32;67.18;;;563.50;1612.80;;;;;;4831357;29;20026;-77
2024/02/11 11:15:31;;;;;;;10.90;4.07;;;563.30;1612.80;;;;;;4823622;29;20496;-74
2024/02/11 11:18:01;;;;;;;33.20;14.73;;;563.30;1638.40;;;;;;4805810;29;20046;-76
2024/02/11 11:20:27;;;;;;;9.90;4.55;;;563.40;1612.80;;;;;;4823525;29;20087;-76
2024/02/11 11:22:57;;;;;;;43.80;39.35;;;563.20;1612.80;;;;;;4831904;29;20490;-76
2024/02/11 11:25:31;;;;;;;10.10;8.80;;;538.40;1587.20;;;;;;4829573;29;20042;-77
2024/02/11 11:28:13;;;;;;;10.93;9.82;;;538.50;1587.20;;;;;;4835877;29;20055;-77
2024/02/11 11:30:39;;;;;;;34.87;31.90;;;538.40;1587.20;;;;;;4837738;29;20819;-77
2024/02/11 11:33:06;;;;;;;57.05;52.15;;;538.30;1587.20;;;;;;4835170;29;20037;-76
2024/02/11 11:35:32;;;;;;;3.25;1.85;;;563.30;1587.20;;;;;;4830167;29;20485;-78
2024/02/11 11:38:00;;;;;;;6.18;3.10;;;563.40;1587.20;;;;;;4829716;29;20034;-79
2024/02/11 11:40:28;;;;;;;5.03;1.60;;;563.20;1612.80;;;;;;4831146;29;20334;-78
2024/02/11 11:42:54;;;;;;;5.90;3.47;;;538.50;1561.60;;;;;;4827976;29;20034;-79
2024/02/11 11:45:21;;;;;;;14.57;6.22;;;563.20;1612.80;;;;;;4837097;29;20022;-78
2024/02/11 11:47:51;;;;;;;10.00;4.28;;;563.30;1587.20;;;;;;4829127;29;20030;-78
2024/02/11 11:50:20;;;;;;;10.52;5.22;;;538.40;1587.20;;;;;;4812699;29;20058;-77
2024/02/11 11:52:49;;;;;;;25.67;16.33;;;563.40;1612.80;;;;;;4832625;29;20034;-78
2024/02/11 11:55:15;;;;;;;11.18;7.13;;;563.60;1612.80;;;;;;4826182;29;20058;-78
2024/02/11 11:57:42;;;;;;;4.32;2.45;;;563.30;1587.20;;;;;;4833157;29;20049;-77
2024/02/11 12:00:08;;;;;;;8.35;3.45;;;538.40;1587.20;;;;;;4833158;29;20036;-80
2024/02/11 12:02:35;;;;;;;41.97;21.38;;;563.20;1612.80;;;;;;4815503;29;20072;-80
2024/02/11 12:05:05;;;;;;;35.00;16.35;;;563.50;1612.80;;;;;;4829177;29;20030;-77
2024/02/11 12:07:32;;;;;;;7.05;3.72;;;563.60;1587.20;;;;;;4825241;29;20073;-78
2024/02/11 12:09:58;;;;;;;6.15;3.40;;;563.40;1561.60;;;;;;4834800;29;20151;-80
2024/02/11 12:12:24;;;;;;;54.72;21.65;;;563.30;1612.80;;;;;;4821210;29;20501;-78
2024/02/11 12:14:50;;;;;;;27.02;11.35;;;563.40;1612.80;;;;;;4835489;29;20033;-78
2024/02/11 12:17:16;;;;;;;49.40;20.88;;;538.40;1612.80;;;;;;4832038;29;20086;-78
2024/02/11 12:19:43;;;;;;;86.35;33.33;;;538.00;1612.80;;;;;;4831206;29;20087;-79